sensor_id;sensor_type;location;lat;lon;timestamp;temperature;humidity
45906;DHT22;31619;49.008;12.106;2023-04-15T00:00:08;6.50;99.90
45906;DHT22;31619;49.008;12.106;2023-04-15T00:02:34;6.50;99.90
45906;DHT22;31619;49.008;12.106;2023-04-15T00:05:01;6.40;99.90
45906;DHT22;31619;49.008;12.106;2023-04-15T00:07:27;6.40;99.90
45906;DHT22;31619;49.008;12.106;2023-04-15T00:09:54;6.40;99.90
45906;DHT22;31619;49.008;12.106;2023-04-15T00:12:22;6.40;99.90
45906;DHT22;31619;49.008;12.106;2023-04-15T00:14:48;6.40;99.90
45906;DHT22;31619;49.008;12.106;2023-04-15T00:17:14;6.50;99.90
45906;DHT22;31619;49.008;12.106;2023-04-15T00:19:40;6.50;99.90
45906;DHT22;31619;49.008;12.106;2023-04-15T00:22:06;6.50;99.90
45906;DHT22;31619;49.008;12.106;2023-04-15T00:24:32;6.40;99.90
45906;DHT22;31619;49.008;12.106;2023-04-15T00:26:58;6.50;99.90
45906;DHT22;31619;49.008;12.106;2023-04-15T00:29:24;6.50;99.90
45906;DHT22;31619;49.008;12.106;2023-04-15T00:31:50;6.50;99.90
45906;DHT22;31619;49.008;12.106;2023-04-15T00:34:16;6.50;99.90
45906;DHT22;31619;49.008;12.106;2023-04-15T00:36:41;6.50;99.90
45906;DHT22;31619;49.008;12.106;2023-04-15T00:39:07;6.60;99.90
45906;DHT22;31619;49.008;12.106;2023-04-15T00:41:33;6.60;99.90
45906;DHT22;31619;49.008;12.106;2023-04-15T00:44:00;6.60;99.90
45906;DHT22;31619;49.008;12.106;2023-04-15T00:46:27;6.60;99.90
45906;DHT22;31619;49.008;12.106;2023-04-15T00:48:54;6.60;99.90
45906;DHT22;31619;49.008;12.106;2023-04-15T00:51:19;6.60;99.90
45906;DHT22;31619;49.008;12.106;2023-04-15T00:53:45;6.60;99.90
45906;DHT22;31619;49.008;12.106;2023-04-15T00:56:11;6.60;99.90
45906;DHT22;31619;49.008;12.106;2023-04-15T00:58:36;6.60;99.90
45906;DHT22;31619;49.008;12.106;2023-04-15T01:01:03;6.60;99.90
45906;DHT22;31619;49.008;12.106;2023-04-15T01:03:29;6.60;99.90
45906;DHT22;31619;49.008;12.106;2023-04-15T01:05:54;6.60;99.90
45906;DHT22;31619;49.008;12.106;2023-04-15T01:08:28;6.60;99.90
45906;DHT22;31619;49.008;12.106;2023-04-15T01:10:56;6.60;99.90
45906;DHT22;31619;49.008;12.106;2023-04-15T01:13:23;6.70;99.90
45906;DHT22;31619;49.008;12.106;2023-04-15T01:15:49;6.70;99.90
45906;DHT22;31619;49.008;12.106;2023-04-15T01:18:16;6.80;99.90
45906;DHT22;31619;49.008;12.106;2023-04-15T01:20:42;6.80;99.90
45906;DHT22;31619;49.008;12.106;2023-04-15T01:23:08;6.80;99.90
45906;DHT22;31619;49.008;12.106;2023-04-15T01:25:34;6.80;99.90
45906;DHT22;31619;49.008;12.106;2023-04-15T01:28:00;6.90;99.90
45906;DHT22;31619;49.008;12.106;2023-04-15T01:30:26;6.90;99.90
45906;DHT22;31619;49.008;12.106;2023-04-15T01:32:52;6.90;99.90
45906;DHT22;31619;49.008;12.106;2023-04-15T01:35:18;6.90;99.90
45906;DHT22;31619;49.008;12.106;2023-04-15T01:37:44;6.90;99.90
45906;DHT22;31619;49.008;12.106;2023-04-15T01:40:10;6.90;99.90
45906;DHT22;31619;49.008;12.106;2023-04-15T01:42:36;6.90;99.90
45906;DHT22;31619;49.008;12.106;2023-04-15T01:45:03;6.90;99.90
45906;DHT22;31619;49.008;12.106;2023-04-15T01:47:28;6.90;99.90
45906;DHT22;31619;49.008;12.106;2023-04-15T01:49:54;6.90;99.90
45906;DHT22;31619;49.008;12.106;2023-04-15T01:52:20;6.90;99.90
45906;DHT22;31619;49.008;12.106;2023-04-15T01:54:46;6.90;99.90
45906;DHT22;31619;49.008;12.106;2023-04-15T01:57:11;6.90;99.90
45906;DHT22;31619;49.008;12.106;2023-04-15T01:59:37;6.90;99.90
45906;DHT22;31619;49.008;12.106;2023-04-15T02:02:03;6.90;99.90
45906;DHT22;31619;49.008;12.106;2023-04-15T02:04:29;6.90;99.90
45906;DHT22;31619;49.008;12.106;2023-04-15T02:06:56;6.90;99.90
45906;DHT22;31619;49.008;12.106;2023-04-15T02:09:21;6.90;99.90
45906;DHT22;31619;49.008;12.106;2023-04-15T02:11:47;6.90;99.90
45906;DHT22;31619;49.008;12.106;2023-04-15T02:14:13;6.90;99.90
45906;DHT22;31619;49.008;12.106;2023-04-15T02:16:38;6.90;99.90
45906;DHT22;31619;49.008;12.106;2023-04-15T02:19:04;7.00;99.90
45906;DHT22;31619;49.008;12.106;2023-04-15T02:21:30;7.00;99.90
45906;DHT22;31619;49.008;12.106;2023-04-15T02:23:55;7.00;99.90
45906;DHT22;31619;49.008;12.106;2023-04-15T02:26:21;7.00;99.90
45906;DHT22;31619;49.008;12.106;2023-04-15T02:28:48;6.90;99.90
45906;DHT22;31619;49.008;12.106;2023-04-15T02:31:15;6.90;99.90
45906;DHT22;31619;49.008;12.106;2023-04-15T02:33:41;6.90;99.90
45906;DHT22;31619;49.008;12.106;2023-04-15T02:36:07;6.90;99.90
45906;DHT22;31619;49.008;12.106;2023-04-15T02:38:34;6.90;99.90
45906;DHT22;31619;49.008;12.106;2023-04-15T02:41:00;6.80;99.90
45906;DHT22;31619;49.008;12.106;2023-04-15T02:43:25;6.80;99.90
45906;DHT22;31619;49.008;12.106;2023-04-15T02:45:51;6.70;99.90
45906;DHT22;31619;49.008;12.106;2023-04-15T02:48:17;6.50;99.90
45906;DHT22;31619;49.008;12.106;2023-04-15T02:50:45;6.40;99.90
45906;DHT22;31619;49.008;12.106;2023-04-15T02:53:11;6.30;99.90
45906;DHT22;31619;49.008;12.106;2023-04-15T02:55:37;6.30;99.90
45906;DHT22;31619;49.008;12.106;2023-04-15T02:58:03;6.20;99.90
45906;DHT22;31619;49.008;12.106;2023-04-15T03:00:29;6.20;99.90
45906;DHT22;31619;49.008;12.106;2023-04-15T03:03:04;6.20;99.90
45906;DHT22;31619;49.008;12.106;2023-04-15T03:05:30;6.10;99.90
45906;DHT22;31619;49.008;12.106;2023-04-15T03:07:56;6.10;99.90
45906;DHT22;31619;49.008;12.106;2023-04-15T03:10:21;6.10;99.90
45906;DHT22;31619;49.008;12.106;2023-04-15T03:12:47;6.00;99.90
45906;DHT22;31619;49.008;12.106;2023-04-15T03:15:13;6.00;99.90
45906;DHT22;31619;49.008;12.106;2023-04-15T03:17:39;6.00;99.90
45906;DHT22;31619;49.008;12.106;2023-04-15T03:20:05;5.90;99.90
45906;DHT22;31619;49.008;12.106;2023-04-15T03:22:32;6.00;99.90
45906;DHT22;31619;49.008;12.106;2023-04-15T03:24:57;5.90;99.90
45906;DHT22;31619;49.008;12.106;2023-04-15T03:27:23;6.00;99.90
45906;DHT22;31619;49.008;12.106;2023-04-15T03:29:49;5.90;99.90
45906;DHT22;31619;49.008;12.106;2023-04-15T03:32:15;5.90;99.90
45906;DHT22;31619;49.008;12.106;2023-04-15T03:34:41;5.90;99.90
45906;DHT22;31619;49.008;12.106;2023-04-15T03:37:07;5.90;99.90
45906;DHT22;31619;49.008;12.106;2023-04-15T03:39:33;5.90;99.90
45906;DHT22;31619;49.008;12.106;2023-04-15T03:41:58;5.90;99.90
45906;DHT22;31619;49.008;12.106;2023-04-15T03:44:25;5.90;99.90
45906;DHT22;31619;49.008;12.106;2023-04-15T03:46:51;5.90;99.90
45906;DHT22;31619;49.008;12.106;2023-04-15T03:49:17;5.90;99.90
45906;DHT22;31619;49.008;12.106;2023-04-15T03:51:43;5.90;99.90
45906;DHT22;31619;49.008;12.106;2023-04-15T03:54:09;5.90;99.90
45906;DHT22;31619;49.008;12.106;2023-04-15T03:56:35;5.80;99.90
45906;DHT22;31619;49.008;12.106;2023-04-15T03:59:01;5.90;99.90
45906;DHT22;31619;49.008;12.106;2023-04-15T04:01:27;5.90;99.90
45906;DHT22;31619;49.008;12.106;2023-04-15T04:03:52;5.90;99.90
45906;DHT22;31619;49.008;12.106;2023-04-15T04:06:18;5.80;99.90
45906;DHT22;31619;49.008;12.106;2023-04-15T04:08:44;5.80;99.90
45906;DHT22;31619;49.008;12.106;2023-04-15T04:11:09;5.70;99.90
45906;DHT22;31619;49.008;12.106;2023-04-15T04:13:35;5.70;99.90
45906;DHT22;31619;49.008;12.106;2023-04-15T04:16:01;5.70;99.90
45906;DHT22;31619;49.008;12.106;2023-04-15T04:18:26;5.70;99.90
45906;DHT22;31619;49.008;12.106;2023-04-15T04:20:52;5.70;99.90
45906;DHT22;31619;49.008;12.106;2023-04-15T04:23:18;5.70;99.90
45906;DHT22;31619;49.008;12.106;2023-04-15T04:25:43;5.70;99.90
45906;DHT22;31619;49.008;12.106;2023-04-15T04:28:09;5.60;99.90
45906;DHT22;31619;49.008;12.106;2023-04-15T04:30:36;5.60;99.90
45906;DHT22;31619;49.008;12.106;2023-04-15T04:33:02;5.60;99.90
45906;DHT22;31619;49.008;12.106;2023-04-15T04:35:28;5.60;99.90
45906;DHT22;31619;49.008;12.106;2023-04-15T04:37:53;5.60;99.90
45906;DHT22;31619;49.008;12.106;2023-04-15T04:40:19;5.60;99.90
45906;DHT22;31619;49.008;12.106;2023-04-15T04:42:45;5.50;99.90
45906;DHT22;31619;49.008;12.106;2023-04-15T04:45:10;5.50;99.90
45906;DHT22;31619;49.008;12.106;2023-04-15T04:47:36;5.50;99.90
45906;DHT22;31619;49.008;12.106;2023-04-15T04:50:01;5.50;99.90
45906;DHT22;31619;49.008;12.106;2023-04-15T04:52:27;5.50;99.90
45906;DHT22;31619;49.008;12.106;2023-04-15T04:54:53;5.50;99.90
45906;DHT22;31619;49.008;12.106;2023-04-15T04:57:19;5.50;99.90
45906;DHT22;31619;49.008;12.106;2023-04-15T04:59:44;5.50;99.90
45906;DHT22;31619;49.008;12.106;2023-04-15T05:02:10;5.50;99.90
45906;DHT22;31619;49.008;12.106;2023-04-15T05:04:35;5.50;99.90
45906;DHT22;31619;49.008;12.106;2023-04-15T05:07:01;5.50;99.90
45906;DHT22;31619;49.008;12.106;2023-04-15T05:09:27;5.50;99.90
45906;DHT22;31619;49.008;12.106;2023-04-15T05:11:53;5.50;99.90
45906;DHT22;31619;49.008;12.106;2023-04-15T05:14:18;5.50;99.90
45906;DHT22;31619;49.008;12.106;2023-04-15T05:16:44;5.50;99.90
45906;DHT22;31619;49.008;12.106;2023-04-15T05:19:09;5.60;99.90
45906;DHT22;31619;49.008;12.106;2023-04-15T05:21:35;5.60;99.90
45906;DHT22;31619;49.008;12.106;2023-04-15T05:24:01;5.50;99.90
45906;DHT22;31619;49.008;12.106;2023-04-15T05:26:26;5.50;99.90
45906;DHT22;31619;49.008;12.106;2023-04-15T05:28:52;5.60;99.90
45906;DHT22;31619;49.008;12.106;2023-04-15T05:31:18;5.50;99.90
45906;DHT22;31619;49.008;12.106;2023-04-15T05:33:44;5.60;99.90
45906;DHT22;31619;49.008;12.106;2023-04-15T05:36:09;5.60;99.90
45906;DHT22;31619;49.008;12.106;2023-04-15T05:38:36;5.70;99.90
45906;DHT22;31619;49.008;12.106;2023-04-15T05:41:02;5.80;99.90
45906;DHT22;31619;49.008;12.106;2023-04-15T05:43:27;6.00;99.90
45906;DHT22;31619;49.008;12.106;2023-04-15T05:45:53;6.00;99.90
45906;DHT22;31619;49.008;12.106;2023-04-15T05:48:18;6.10;99.90
45906;DHT22;31619;49.008;12.106;2023-04-15T05:50:44;5.90;99.90
45906;DHT22;31619;49.008;12.106;2023-04-15T05:53:10;5.80;99.90
45906;DHT22;31619;49.008;12.106;2023-04-15T05:55:36;5.70;99.90
45906;DHT22;31619;49.008;12.106;2023-04-15T05:58:01;5.70;99.90
45906;DHT22;31619;49.008;12.106;2023-04-15T06:00:28;5.70;99.90
45906;DHT22;31619;49.008;12.106;2023-04-15T06:02:55;5.70;99.90
45906;DHT22;31619;49.008;12.106;2023-04-15T06:05:20;5.60;99.90
45906;DHT22;31619;49.008;12.106;2023-04-15T06:07:46;5.70;99.90
45906;DHT22;31619;49.008;12.106;2023-04-15T06:10:12;5.60;99.90
45906;DHT22;31619;49.008;12.106;2023-04-15T06:12:37;5.70;99.90
45906;DHT22;31619;49.008;12.106;2023-04-15T06:15:03;5.70;99.90
45906;DHT22;31619;49.008;12.106;2023-04-15T06:17:30;5.80;99.90
45906;DHT22;31619;49.008;12.106;2023-04-15T06:19:56;5.80;99.90
45906;DHT22;31619;49.008;12.106;2023-04-15T06:22:22;5.80;99.90
45906;DHT22;31619;49.008;12.106;2023-04-15T06:24:48;5.80;99.90
45906;DHT22;31619;49.008;12.106;2023-04-15T06:27:17;5.70;99.90
45906;DHT22;31619;49.008;12.106;2023-04-15T06:29:43;5.80;99.90
45906;DHT22;31619;49.008;12.106;2023-04-15T06:32:09;5.70;99.90
45906;DHT22;31619;49.008;12.106;2023-04-15T06:34:35;5.70;99.90
45906;DHT22;31619;49.008;12.106;2023-04-15T06:37:00;5.70;99.90
45906;DHT22;31619;49.008;12.106;2023-04-15T06:39:26;5.70;99.90
45906;DHT22;31619;49.008;12.106;2023-04-15T06:41:52;5.70;99.90
45906;DHT22;31619;49.008;12.106;2023-04-15T06:44:18;5.80;99.90
45906;DHT22;31619;49.008;12.106;2023-04-15T06:46:43;5.90;99.90
45906;DHT22;31619;49.008;12.106;2023-04-15T06:49:09;5.90;99.90
45906;DHT22;31619;49.008;12.106;2023-04-15T06:51:35;5.90;99.90
45906;DHT22;31619;49.008;12.106;2023-04-15T06:54:02;5.90;99.90
45906;DHT22;31619;49.008;12.106;2023-04-15T06:56:33;6.00;99.90
45906;DHT22;31619;49.008;12.106;2023-04-15T06:58:58;5.90;99.90
45906;DHT22;31619;49.008;12.106;2023-04-15T07:01:24;5.90;99.90
45906;DHT22;31619;49.008;12.106;2023-04-15T07:03:50;5.90;99.90
45906;DHT22;31619;49.008;12.106;2023-04-15T07:06:15;6.00;99.90
45906;DHT22;31619;49.008;12.106;2023-04-15T07:08:41;6.00;99.90
45906;DHT22;31619;49.008;12.106;2023-04-15T07:11:07;6.10;99.90
45906;DHT22;31619;49.008;12.106;2023-04-15T07:13:33;6.20;99.90
45906;DHT22;31619;49.008;12.106;2023-04-15T07:15:59;6.10;99.90
45906;DHT22;31619;49.008;12.106;2023-04-15T07:18:24;6.20;99.90
45906;DHT22;31619;49.008;12.106;2023-04-15T07:20:50;6.20;99.90
45906;DHT22;31619;49.008;12.106;2023-04-15T07:23:16;6.30;99.90
45906;DHT22;31619;49.008;12.106;2023-04-15T07:25:41;6.30;99.90
45906;DHT22;31619;49.008;12.106;2023-04-15T07:28:07;6.30;99.90
45906;DHT22;31619;49.008;12.106;2023-04-15T07:30:32;6.20;99.90
45906;DHT22;31619;49.008;12.106;2023-04-15T07:32:59;6.30;99.90
45906;DHT22;31619;49.008;12.106;2023-04-15T07:35:24;6.30;99.90
45906;DHT22;31619;49.008;12.106;2023-04-15T07:37:51;6.30;99.90
45906;DHT22;31619;49.008;12.106;2023-04-15T07:40:16;6.20;99.90
45906;DHT22;31619;49.008;12.106;2023-04-15T07:42:42;6.10;99.90
45906;DHT22;31619;49.008;12.106;2023-04-15T07:45:08;6.10;99.90
45906;DHT22;31619;49.008;12.106;2023-04-15T07:47:34;6.10;99.90
45906;DHT22;31619;49.008;12.106;2023-04-15T07:50:00;6.10;99.90
45906;DHT22;31619;49.008;12.106;2023-04-15T07:52:26;6.10;99.90
45906;DHT22;31619;49.008;12.106;2023-04-15T07:54:52;6.10;99.90
45906;DHT22;31619;49.008;12.106;2023-04-15T07:57:18;6.20;99.90
45906;DHT22;31619;49.008;12.106;2023-04-15T07:59:44;6.30;99.90
45906;DHT22;31619;49.008;12.106;2023-04-15T08:02:10;6.30;99.90
45906;DHT22;31619;49.008;12.106;2023-04-15T08:04:36;6.30;99.90
45906;DHT22;31619;49.008;12.106;2023-04-15T08:07:02;6.20;99.90
45906;DHT22;31619;49.008;12.106;2023-04-15T08:09:29;6.30;99.90
45906;DHT22;31619;49.008;12.106;2023-04-15T08:11:54;6.30;99.90
45906;DHT22;31619;49.008;12.106;2023-04-15T08:14:21;6.30;99.90
45906;DHT22;31619;49.008;12.106;2023-04-15T08:16:47;6.30;99.90
45906;DHT22;31619;49.008;12.106;2023-04-15T08:19:12;6.40;99.90
45906;DHT22;31619;49.008;12.106;2023-04-15T08:21:38;6.40;99.90
45906;DHT22;31619;49.008;12.106;2023-04-15T08:24:05;6.50;99.90
45906;DHT22;31619;49.008;12.106;2023-04-15T08:26:31;6.50;99.90
45906;DHT22;31619;49.008;12.106;2023-04-15T08:28:57;6.50;99.90
45906;DHT22;31619;49.008;12.106;2023-04-15T08:31:25;6.60;99.90
45906;DHT22;31619;49.008;12.106;2023-04-15T08:33:51;6.60;99.90
45906;DHT22;31619;49.008;12.106;2023-04-15T08:36:18;6.60;99.90
45906;DHT22;31619;49.008;12.106;2023-04-15T08:38:44;6.60;99.90
45906;DHT22;31619;49.008;12.106;2023-04-15T08:42:15;6.70;99.90
45906;DHT22;31619;49.008;12.106;2023-04-15T08:44:19;6.70;99.90
45906;DHT22;31619;49.008;12.106;2023-04-15T08:46:45;6.70;99.90
45906;DHT22;31619;49.008;12.106;2023-04-15T08:49:12;6.80;99.90
45906;DHT22;31619;49.008;12.106;2023-04-15T08:51:39;7.00;99.90
45906;DHT22;31619;49.008;12.106;2023-04-15T08:54:06;6.80;99.90
45906;DHT22;31619;49.008;12.106;2023-04-15T08:56:33;6.80;99.90
45906;DHT22;31619;49.008;12.106;2023-04-15T08:59:00;6.80;99.90
45906;DHT22;31619;49.008;12.106;2023-04-15T09:01:26;6.80;99.90
45906;DHT22;31619;49.008;12.106;2023-04-15T09:03:52;6.70;99.90
45906;DHT22;31619;49.008;12.106;2023-04-15T09:06:23;6.70;99.90
45906;DHT22;31619;49.008;12.106;2023-04-15T09:08:50;6.60;99.90
45906;DHT22;31619;49.008;12.106;2023-04-15T09:11:16;6.50;99.90
45906;DHT22;31619;49.008;12.106;2023-04-15T09:13:42;6.50;99.90
45906;DHT22;31619;49.008;12.106;2023-04-15T09:16:08;6.50;99.90
45906;DHT22;31619;49.008;12.106;2023-04-15T09:18:35;6.60;99.90
45906;DHT22;31619;49.008;12.106;2023-04-15T09:21:15;6.60;99.90
45906;DHT22;31619;49.008;12.106;2023-04-15T09:23:55;6.70;99.90
45906;DHT22;31619;49.008;12.106;2023-04-15T09:31:31;7.00;99.90
45906;DHT22;31619;49.008;12.106;2023-04-15T09:33:56;7.00;99.90
45906;DHT22;31619;49.008;12.106;2023-04-15T09:36:22;6.90;99.90
45906;DHT22;31619;49.008;12.106;2023-04-15T09:38:56;7.00;99.90
45906;DHT22;31619;49.008;12.106;2023-04-15T09:41:23;6.90;99.90
45906;DHT22;31619;49.008;12.106;2023-04-15T09:43:49;7.00;99.90
45906;DHT22;31619;49.008;12.106;2023-04-15T09:46:14;7.00;99.90
45906;DHT22;31619;49.008;12.106;2023-04-15T09:48:40;7.10;99.90
45906;DHT22;31619;49.008;12.106;2023-04-15T09:51:06;7.20;99.90
45906;DHT22;31619;49.008;12.106;2023-04-15T09:53:34;7.20;99.90
45906;DHT22;31619;49.008;12.106;2023-04-15T09:56:00;7.10;99.90
45906;DHT22;31619;49.008;12.106;2023-04-15T09:58:31;7.00;99.90
45906;DHT22;31619;49.008;12.106;2023-04-15T10:00:59;6.90;99.90
45906;DHT22;31619;49.008;12.106;2023-04-15T10:03:30;6.90;99.90
45906;DHT22;31619;49.008;12.106;2023-04-15T10:05:59;7.00;99.90
45906;DHT22;31619;49.008;12.106;2023-04-15T10:08:29;7.10;99.90
45906;DHT22;31619;49.008;12.106;2023-04-15T10:10:55;7.20;99.90
45906;DHT22;31619;49.008;12.106;2023-04-15T10:13:23;7.30;99.90
45906;DHT22;31619;49.008;12.106;2023-04-15T10:15:57;7.40;99.90
45906;DHT22;31619;49.008;12.106;2023-04-15T10:18:25;7.50;99.90
45906;DHT22;31619;49.008;12.106;2023-04-15T10:20:52;7.80;99.90
45906;DHT22;31619;49.008;12.106;2023-04-15T10:23:18;7.80;99.90
45906;DHT22;31619;49.008;12.106;2023-04-15T10:25:45;7.80;99.90
45906;DHT22;31619;49.008;12.106;2023-04-15T10:28:11;7.90;99.90
45906;DHT22;31619;49.008;12.106;2023-04-15T10:30:37;7.90;99.90
45906;DHT22;31619;49.008;12.106;2023-04-15T10:33:04;8.10;99.90
45906;DHT22;31619;49.008;12.106;2023-04-15T10:35:31;8.00;99.90
45906;DHT22;31619;49.008;12.106;2023-04-15T10:37:58;8.10;99.90
45906;DHT22;31619;49.008;12.106;2023-04-15T10:40:31;8.00;99.90
45906;DHT22;31619;49.008;12.106;2023-04-15T10:42:58;8.20;99.90
45906;DHT22;31619;49.008;12.106;2023-04-15T10:45:26;8.40;99.90
45906;DHT22;31619;49.008;12.106;2023-04-15T10:47:55;9.00;99.90
45906;DHT22;31619;49.008;12.106;2023-04-15T10:50:21;10.00;99.90
45906;DHT22;31619;49.008;12.106;2023-04-15T10:52:50;11.50;99.90
45906;DHT22;31619;49.008;12.106;2023-04-15T10:55:25;12.40;99.90
45906;DHT22;31619;49.008;12.106;2023-04-15T10:57:58;12.90;99.90
45906;DHT22;31619;49.008;12.106;2023-04-15T11:00:29;13.30;99.90
45906;DHT22;31619;49.008;12.106;2023-04-15T11:03:06;13.20;99.90
45906;DHT22;31619;49.008;12.106;2023-04-15T11:08:10;13.00;99.90
45906;DHT22;31619;49.008;12.106;2023-04-15T11:13:03;11.90;99.90
45906;DHT22;31619;49.008;12.106;2023-04-15T11:15:36;11.90;99.90
45906;DHT22;31619;49.008;12.106;2023-04-15T11:18:15;11.40;99.90
45906;DHT22;31619;49.008;12.106;2023-04-15T11:20:44;11.00;99.90
45906;DHT22;31619;49.008;12.106;2023-04-15T11:23:10;10.90;99.90
45906;DHT22;31619;49.008;12.106;2023-04-15T11:25:36;11.60;99.90
45906;DHT22;31619;49.008;12.106;2023-04-15T11:28:03;12.00;99.90
45906;DHT22;31619;49.008;12.106;2023-04-15T11:30:31;11.90;99.90
45906;DHT22;31619;49.008;12.106;2023-04-15T11:32:59;12.20;99.90
45906;DHT22;31619;49.008;12.106;2023-04-15T11:35:25;12.40;99.90
45906;DHT22;31619;49.008;12.106;2023-04-15T11:37:51;11.90;99.90
45906;DHT22;31619;49.008;12.106;2023-04-15T11:40:28;11.10;99.90
45906;DHT22;31619;49.008;12.106;2023-04-15T11:43:21;10.40;99.90
45906;DHT22;31619;49.008;12.106;2023-04-15T11:48:26;10.40;99.90
45906;DHT22;31619;49.008;12.106;2023-04-15T11:50:59;10.20;99.90
45906;DHT22;31619;49.008;12.106;2023-04-15T11:53:37;10.00;99.90
45906;DHT22;31619;49.008;12.106;2023-04-15T11:56:04;9.80;99.90
45906;DHT22;31619;49.008;12.106;2023-04-15T11:58:30;10.00;99.90
45906;DHT22;31619;49.008;12.106;2023-04-15T12:00:57;10.50;99.90
45906;DHT22;31619;49.008;12.106;2023-04-15T12:03:41;10.90;99.90
45906;DHT22;31619;49.008;12.106;2023-04-15T12:06:17;11.20;99.90
45906;DHT22;31619;49.008;12.106;2023-04-15T12:11:33;11.30;99.90
45906;DHT22;31619;49.008;12.106;2023-04-15T12:17:04;10.40;99.90
45906;DHT22;31619;49.008;12.106;2023-04-15T12:19:38;10.70;99.90
45906;DHT22;31619;49.008;12.106;2023-04-15T12:22:05;10.60;99.90
45906;DHT22;31619;49.008;12.106;2023-04-15T12:24:34;10.90;99.90
45906;DHT22;31619;49.008;12.106;2023-04-15T12:27:02;10.70;99.90
45906;DHT22;31619;49.008;12.106;2023-04-15T12:29:28;10.70;99.90
45906;DHT22;31619;49.008;12.106;2023-04-15T12:31:57;10.70;99.90
45906;DHT22;31619;49.008;12.106;2023-04-15T12:34:32;10.20;99.90
45906;DHT22;31619;49.008;12.106;2023-04-15T12:37:00;9.80;99.90
45906;DHT22;31619;49.008;12.106;2023-04-15T12:39:28;9.80;99.90
45906;DHT22;31619;49.008;12.106;2023-04-15T12:41:54;9.60;99.90
45906;DHT22;31619;49.008;12.106;2023-04-15T12:44:22;9.40;99.90
45906;DHT22;31619;49.008;12.106;2023-04-15T12:46:49;9.20;99.90
45906;DHT22;31619;49.008;12.106;2023-04-15T12:49:14;8.80;99.90
45906;DHT22;31619;49.008;12.106;2023-04-15T12:51:41;8.70;99.90
45906;DHT22;31619;49.008;12.106;2023-04-15T12:54:06;8.70;99.90
45906;DHT22;31619;49.008;12.106;2023-04-15T12:56:32;8.70;99.90
45906;DHT22;31619;49.008;12.106;2023-04-15T12:58:58;8.60;99.90
45906;DHT22;31619;49.008;12.106;2023-04-15T13:01:23;8.60;99.90
45906;DHT22;31619;49.008;12.106;2023-04-15T13:03:49;8.60;99.90
45906;DHT22;31619;49.008;12.106;2023-04-15T13:06:15;8.60;99.90
45906;DHT22;31619;49.008;12.106;2023-04-15T13:08:41;8.60;99.90
45906;DHT22;31619;49.008;12.106;2023-04-15T13:11:07;8.50;99.90
45906;DHT22;31619;49.008;12.106;2023-04-15T13:13:33;8.60;99.90
45906;DHT22;31619;49.008;12.106;2023-04-15T13:15:58;8.40;99.90
45906;DHT22;31619;49.008;12.106;2023-04-15T13:18:25;8.40;99.90
45906;DHT22;31619;49.008;12.106;2023-04-15T13:20:50;8.40;99.90
45906;DHT22;31619;49.008;12.106;2023-04-15T13:23:16;8.40;99.90
45906;DHT22;31619;49.008;12.106;2023-04-15T13:25:42;8.40;99.90
45906;DHT22;31619;49.008;12.106;2023-04-15T13:28:09;8.50;99.90
45906;DHT22;31619;49.008;12.106;2023-04-15T13:30:37;8.60;99.90
45906;DHT22;31619;49.008;12.106;2023-04-15T13:33:03;8.50;99.90
45906;DHT22;31619;49.008;12.106;2023-04-15T13:35:28;8.50;99.90
45906;DHT22;31619;49.008;12.106;2023-04-15T13:37:54;8.50;99.90
45906;DHT22;31619;49.008;12.106;2023-04-15T13:40:20;8.50;99.90
45906;DHT22;31619;49.008;12.106;2023-04-15T13:42:46;8.60;99.90
45906;DHT22;31619;49.008;12.106;2023-04-15T13:45:11;8.70;99.90
45906;DHT22;31619;49.008;12.106;2023-04-15T13:47:37;8.60;99.90
45906;DHT22;31619;49.008;12.106;2023-04-15T13:50:04;8.40;99.90
45906;DHT22;31619;49.008;12.106;2023-04-15T13:52:29;8.30;99.90
45906;DHT22;31619;49.008;12.106;2023-04-15T13:54:55;8.30;99.90
45906;DHT22;31619;49.008;12.106;2023-04-15T13:57:21;8.20;99.90
45906;DHT22;31619;49.008;12.106;2023-04-15T13:59:46;8.10;99.90
45906;DHT22;31619;49.008;12.106;2023-04-15T14:02:12;8.00;99.90
45906;DHT22;31619;49.008;12.106;2023-04-15T14:04:37;8.10;99.90
45906;DHT22;31619;49.008;12.106;2023-04-15T14:07:03;8.30;99.90
45906;DHT22;31619;49.008;12.106;2023-04-15T14:09:29;8.40;99.90
45906;DHT22;31619;49.008;12.106;2023-04-15T14:11:55;8.50;99.90
45906;DHT22;31619;49.008;12.106;2023-04-15T14:14:21;8.40;99.90
45906;DHT22;31619;49.008;12.106;2023-04-15T14:16:46;8.50;99.90
45906;DHT22;31619;49.008;12.106;2023-04-15T14:19:13;8.90;99.90
45906;DHT22;31619;49.008;12.106;2023-04-15T14:21:38;9.10;99.90
45906;DHT22;31619;49.008;12.106;2023-04-15T14:24:04;9.10;99.90
45906;DHT22;31619;49.008;12.106;2023-04-15T14:26:30;9.40;99.90
45906;DHT22;31619;49.008;12.106;2023-04-15T14:28:55;9.60;99.90
45906;DHT22;31619;49.008;12.106;2023-04-15T14:31:21;9.60;99.90
45906;DHT22;31619;49.008;12.106;2023-04-15T14:33:47;9.40;99.90
45906;DHT22;31619;49.008;12.106;2023-04-15T14:36:12;9.10;99.90
45906;DHT22;31619;49.008;12.106;2023-04-15T14:38:38;9.00;99.90
45906;DHT22;31619;49.008;12.106;2023-04-15T14:41:07;8.80;99.90
45906;DHT22;31619;49.008;12.106;2023-04-15T14:43:33;8.80;99.90
45906;DHT22;31619;49.008;12.106;2023-04-15T14:45:59;8.90;99.90
45906;DHT22;31619;49.008;12.106;2023-04-15T14:48:25;9.00;99.90
45906;DHT22;31619;49.008;12.106;2023-04-15T14:50:51;9.10;99.90
45906;DHT22;31619;49.008;12.106;2023-04-15T14:53:16;9.20;99.90
45906;DHT22;31619;49.008;12.106;2023-04-15T14:55:42;9.10;99.90
45906;DHT22;31619;49.008;12.106;2023-04-15T14:58:08;9.30;99.90
45906;DHT22;31619;49.008;12.106;2023-04-15T15:00:35;9.70;99.90
45906;DHT22;31619;49.008;12.106;2023-04-15T15:03:03;9.80;99.90
45906;DHT22;31619;49.008;12.106;2023-04-15T15:05:39;9.90;99.90
45906;DHT22;31619;49.008;12.106;2023-04-15T15:08:06;9.90;99.90
45906;DHT22;31619;49.008;12.106;2023-04-15T15:10:32;10.10;99.90
45906;DHT22;31619;49.008;12.106;2023-04-15T15:12:58;10.30;99.90
45906;DHT22;31619;49.008;12.106;2023-04-15T15:15:24;10.30;99.90
45906;DHT22;31619;49.008;12.106;2023-04-15T15:17:50;10.30;99.90
45906;DHT22;31619;49.008;12.106;2023-04-15T15:20:16;10.30;99.90
45906;DHT22;31619;49.008;12.106;2023-04-15T15:22:42;10.10;99.90
45906;DHT22;31619;49.008;12.106;2023-04-15T15:25:07;9.90;99.90
45906;DHT22;31619;49.008;12.106;2023-04-15T15:27:33;9.50;99.90
45906;DHT22;31619;49.008;12.106;2023-04-15T15:29:59;9.30;99.90
45906;DHT22;31619;49.008;12.106;2023-04-15T15:32:24;9.20;99.90
45906;DHT22;31619;49.008;12.106;2023-04-15T15:34:50;9.20;99.90
45906;DHT22;31619;49.008;12.106;2023-04-15T15:37:17;9.10;99.90
45906;DHT22;31619;49.008;12.106;2023-04-15T15:39:42;9.00;99.90
45906;DHT22;31619;49.008;12.106;2023-04-15T15:42:08;9.20;99.90
45906;DHT22;31619;49.008;12.106;2023-04-15T15:44:34;9.20;99.90